createdAt,value
2022-10-31T00:01:26.015Z,9.33
2022-10-31T00:03:53.612Z,7.80
2022-10-31T00:06:20.751Z,4.77
2022-10-31T00:08:52.403Z,8.60
2022-10-31T00:11:19.088Z,6.57
2022-10-31T00:13:45.941Z,10.93
2022-10-31T00:16:24.815Z,7.77
2022-10-31T00:18:59.085Z,6.90
2022-10-31T00:21:26.534Z,6.20
2022-10-31T00:23:53.461Z,7.90
2022-10-31T00:26:20.669Z,5.67
2022-10-31T00:28:47.778Z,6.77
2022-10-31T00:31:15.412Z,8.83
2022-10-31T00:33:43.400Z,10.83
2022-10-31T00:36:18.639Z,6.77
2022-10-31T00:38:47.430Z,7.53
2022-10-31T00:41:16.957Z,10.27
2022-10-31T00:43:44.509Z,5.20
2022-10-31T00:46:12.647Z,7.83
2022-10-31T00:48:39.624Z,11.27
2022-10-31T00:51:06.962Z,11.13
2022-10-31T00:53:33.789Z,8.70
2022-10-31T00:56:00.817Z,4.87
2022-10-31T00:58:27.753Z,7.33
2022-10-31T01:00:57.551Z,4.93
2022-10-31T01:03:31.599Z,5.67
2022-10-31T01:06:08.144Z,12.30
2022-10-31T01:08:39.358Z,6.53
2022-10-31T01:11:15.000Z,6.77
2022-10-31T01:13:42.647Z,5.33
2022-10-31T01:16:15.269Z,4.63
2022-10-31T01:18:42.515Z,5.53
2022-10-31T01:21:14.848Z,7.13
2022-10-31T01:23:42.271Z,5.70
2022-10-31T01:26:18.862Z,4.33
2022-10-31T01:28:54.165Z,4.33
2022-10-31T01:31:24.020Z,8.73
2022-10-31T01:33:51.192Z,3.90
2022-10-31T01:36:30.522Z,5.00
2022-10-31T01:39:05.869Z,5.40
2022-10-31T01:41:36.034Z,8.87
2022-10-31T01:44:24.756Z,4.53
2022-10-31T01:47:00.149Z,5.60
2022-10-31T01:49:58.487Z,4.70
2022-10-31T01:52:39.198Z,4.60
2022-10-31T01:55:19.070Z,4.47
2022-10-31T01:57:52.304Z,5.40
2022-10-31T02:00:21.338Z,4.37
2022-10-31T02:02:51.041Z,4.60
2022-10-31T02:05:23.571Z,3.90
2022-10-31T02:08:00.642Z,5.50
2022-10-31T02:10:28.334Z,4.67
2022-10-31T02:12:59.541Z,7.57
2022-10-31T02:15:27.161Z,10.17
2022-10-31T02:17:53.995Z,7.53
2022-10-31T02:20:26.175Z,6.57
2022-10-31T02:23:10.721Z,4.97
2022-10-31T02:26:08.657Z,5.50
2022-10-31T02:29:13.727Z,4.63
2022-10-31T02:31:49.350Z,7.40
2022-10-31T02:34:36.752Z,9.87
2022-10-31T02:37:14.827Z,11.17
2022-10-31T02:39:58.183Z,8.67
2022-10-31T02:42:54.641Z,5.67
2022-10-31T02:45:32.219Z,9.87
2022-10-31T02:48:09.032Z,5.90
2022-10-31T02:50:43.070Z,8.00
2022-10-31T02:53:09.761Z,8.77
2022-10-31T02:55:36.439Z,7.30
2022-10-31T02:58:16.226Z,8.20
2022-10-31T03:01:40.362Z,7.53
2022-10-31T03:04:31.911Z,5.90
2022-10-31T03:07:15.431Z,9.43
2022-10-31T03:10:02.339Z,9.43
2022-10-31T03:12:48.700Z,9.93
2022-10-31T03:15:26.078Z,12.47
2022-10-31T03:17:58.924Z,6.77
2022-10-31T03:20:41.852Z,5.97
2022-10-31T03:23:17.026Z,6.13
2022-10-31T03:25:45.858Z,6.33
2022-10-31T03:28:20.517Z,8.30
2022-10-31T03:30:50.427Z,9.13
2022-10-31T03:33:25.438Z,7.00
2022-10-31T03:35:58.345Z,4.40
2022-10-31T03:38:25.953Z,9.80
2022-10-31T03:40:56.017Z,6.43
2022-10-31T03:43:31.643Z,5.57
2022-10-31T03:45:59.067Z,4.97
2022-10-31T03:48:27.075Z,9.23
2022-10-31T03:51:17.880Z,7.10
2022-10-31T03:54:17.797Z,9.70
2022-10-31T03:57:07.744Z,5.53
2022-10-31T03:59:41.365Z,6.20
2022-10-31T04:02:15.060Z,9.03
2022-10-31T04:04:45.117Z,5.53
2022-10-31T04:07:14.179Z,9.77
2022-10-31T04:09:46.249Z,7.87
2022-10-31T04:12:17.209Z,10.77
2022-10-31T04:14:48.746Z,8.70
2022-10-31T04:17:20.690Z,8.17
2022-10-31T04:19:47.440Z,6.33
2022-10-31T04:22:14.454Z,9.07
2022-10-31T04:24:42.117Z,5.30
2022-10-31T04:27:08.848Z,4.93
2022-10-31T04:29:35.545Z,5.30
2022-10-31T04:32:02.291Z,6.87
2022-10-31T04:34:29.033Z,9.37
2022-10-31T04:36:55.728Z,7.57
2022-10-31T04:39:25.767Z,6.80
2022-10-31T04:41:53.585Z,5.97
2022-10-31T04:44:20.289Z,5.97
2022-10-31T04:46:47.168Z,7.20
2022-10-31T04:49:14.224Z,5.80
2022-10-31T04:51:40.938Z,7.47
2022-10-31T04:54:07.814Z,8.07
2022-10-31T04:56:34.570Z,6.80
2022-10-31T04:59:01.357Z,6.10
2022-10-31T05:01:28.846Z,5.67
2022-10-31T05:03:56.104Z,8.53
2022-10-31T05:06:22.820Z,5.97
2022-10-31T05:08:49.533Z,6.03
2022-10-31T05:11:16.264Z,12.90
2022-10-31T05:13:42.967Z,9.27
2022-10-31T05:16:09.811Z,10.17
2022-10-31T05:18:36.888Z,7.80
2022-10-31T05:21:03.863Z,11.27
2022-10-31T05:23:30.668Z,11.53
2022-10-31T05:25:57.368Z,9.07
2022-10-31T05:28:24.145Z,13.03
2022-10-31T05:30:50.897Z,11.97
2022-10-31T05:33:17.661Z,11.70
2022-10-31T05:35:44.372Z,12.23
2022-10-31T05:38:11.069Z,7.00
2022-10-31T05:40:37.787Z,11.63
2022-10-31T05:43:04.476Z,10.87
2022-10-31T05:45:31.252Z,10.40
2022-10-31T05:48:01.135Z,9.77
2022-10-31T05:50:31.615Z,7.57
2022-10-31T05:53:05.369Z,6.73
2022-10-31T05:55:33.274Z,8.83
2022-10-31T05:58:00.298Z,6.00
2022-10-31T06:00:28.766Z,11.70
2022-10-31T06:03:04.770Z,12.13
2022-10-31T06:05:32.606Z,11.00
2022-10-31T06:08:00.112Z,11.07
2022-10-31T06:10:28.077Z,13.70
2022-10-31T06:12:54.914Z,9.87
2022-10-31T06:15:24.531Z,13.17
2022-10-31T06:18:06.450Z,6.50
2022-10-31T06:20:34.897Z,8.63
2022-10-31T06:23:02.994Z,6.43
2022-10-31T06:25:30.371Z,5.93
2022-10-31T06:27:57.776Z,6.87
2022-10-31T06:30:24.555Z,5.60
2022-10-31T06:32:51.322Z,11.67
2022-10-31T06:35:18.443Z,7.50
2022-10-31T06:37:53.825Z,6.10
2022-10-31T06:40:20.945Z,11.20
2022-10-31T06:42:47.665Z,12.33
2022-10-31T06:45:14.575Z,6.93
2022-10-31T06:47:56.799Z,6.67
2022-10-31T06:50:28.002Z,7.57
2022-10-31T06:52:58.325Z,8.17
2022-10-31T06:55:26.929Z,10.90
2022-10-31T06:58:02.888Z,6.13
2022-10-31T07:00:34.496Z,7.10
2022-10-31T07:03:05.356Z,10.60
2022-10-31T07:05:32.501Z,6.77
2022-10-31T07:08:02.539Z,8.13
2022-10-31T07:10:35.629Z,6.07
2022-10-31T07:13:11.023Z,5.37
2022-10-31T07:15:40.125Z,5.37
2022-10-31T07:18:10.354Z,4.93
2022-10-31T07:20:37.347Z,5.57
2022-10-31T07:23:04.858Z,4.50
2022-10-31T07:25:31.982Z,4.50
2022-10-31T07:27:58.970Z,5.07
2022-10-31T07:30:26.029Z,4.57
2022-10-31T07:32:52.818Z,4.30
2022-10-31T07:35:26.658Z,5.93
2022-10-31T07:37:54.403Z,7.10
2022-10-31T07:40:22.460Z,4.57
2022-10-31T07:42:53.181Z,4.03
2022-10-31T07:45:21.952Z,4.63
2022-10-31T07:47:53.620Z,4.43
2022-10-31T07:50:27.088Z,4.13
2022-10-31T07:53:12.295Z,7.70
2022-10-31T07:55:39.743Z,4.93
2022-10-31T07:58:11.916Z,3.90
2022-10-31T08:00:41.430Z,5.60
2022-10-31T08:03:12.155Z,4.03
2022-10-31T08:05:39.236Z,4.30
2022-10-31T08:08:06.838Z,5.17
2022-10-31T08:10:35.396Z,3.90
2022-10-31T08:13:06.254Z,4.90
2022-10-31T08:15:35.170Z,4.57
2022-10-31T08:18:03.176Z,4.93
2022-10-31T08:20:30.127Z,5.57
2022-10-31T08:23:02.332Z,8.57
2022-10-31T08:25:35.493Z,11.23
2022-10-31T08:28:06.666Z,5.90
2022-10-31T08:30:36.121Z,7.30
2022-10-31T08:33:19.071Z,5.90
2022-10-31T08:35:46.249Z,4.90
2022-10-31T08:38:14.251Z,4.40
2022-10-31T08:40:41.365Z,4.10
2022-10-31T08:43:17.584Z,4.17
2022-10-31T08:45:48.301Z,5.10
2022-10-31T08:48:17.521Z,5.93
2022-10-31T08:50:46.339Z,4.57
2022-10-31T08:53:19.016Z,7.10
2022-10-31T08:55:47.472Z,5.80
2022-10-31T08:58:18.712Z,5.43
2022-10-31T09:00:48.148Z,5.63
2022-10-31T09:03:20.669Z,4.97
2022-10-31T09:05:47.495Z,5.93
2022-10-31T09:08:16.895Z,5.20
2022-10-31T09:10:44.730Z,8.70
2022-10-31T09:13:15.386Z,6.90
2022-10-31T09:15:44.881Z,6.07
2022-10-31T09:18:14.094Z,6.20
2022-10-31T09:20:44.282Z,5.10
2022-10-31T09:23:20.804Z,5.93
2022-10-31T09:25:50.946Z,7.30
2022-10-31T09:28:21.804Z,7.20
2022-10-31T09:30:52.120Z,5.13
2022-10-31T09:33:19.395Z,5.53
2022-10-31T09:35:46.525Z,6.57
2022-10-31T09:38:19.929Z,6.60
2022-10-31T09:41:10.292Z,9.37
2022-10-31T09:43:57.387Z,5.07
2022-10-31T09:46:58.860Z,6.87
2022-10-31T09:49:38.768Z,6.60
2022-10-31T09:52:32.035Z,7.10
2022-10-31T09:55:17.828Z,6.83
2022-10-31T09:57:46.772Z,6.47
2022-10-31T10:00:21.161Z,4.43
2022-10-31T10:03:02.499Z,5.67
2022-10-31T10:05:41.639Z,5.17
2022-10-31T10:08:27.440Z,6.47
2022-10-31T10:11:37.563Z,8.60
2022-10-31T10:14:27.866Z,5.97
2022-10-31T10:17:23.114Z,5.07
2022-10-31T10:20:28.377Z,7.27
2022-10-31T10:23:44.455Z,7.07
2022-10-31T10:26:13.843Z,6.20
2022-10-31T10:28:48.186Z,4.97
2022-10-31T10:31:20.838Z,8.27
2022-10-31T10:34:14.004Z,3.87
2022-10-31T10:36:51.121Z,3.83
2022-10-31T10:39:26.305Z,3.90
2022-10-31T10:42:11.459Z,5.13
2022-10-31T10:45:08.242Z,5.67
2022-10-31T10:47:44.039Z,4.43
2022-10-31T10:50:23.507Z,3.87
2022-10-31T10:53:02.478Z,7.17
2022-10-31T10:55:51.400Z,6.20
2022-10-31T10:58:18.168Z,11.03
2022-10-31T11:00:47.884Z,4.93
2022-10-31T11:03:17.444Z,4.43
2022-10-31T11:06:01.456Z,5.57
2022-10-31T11:08:36.376Z,4.17
2022-10-31T11:11:14.652Z,5.77
2022-10-31T11:13:46.315Z,4.93
2022-10-31T11:16:30.503Z,4.07
2022-10-31T11:19:16.920Z,4.20
2022-10-31T11:21:53.785Z,4.77
2022-10-31T11:24:27.291Z,3.97
2022-10-31T11:27:14.939Z,6.07
2022-10-31T11:29:41.692Z,3.03
2022-10-31T11:32:24.234Z,4.33
2022-10-31T11:34:59.340Z,7.13
2022-10-31T11:37:30.547Z,3.20
2022-10-31T11:40:02.804Z,4.93
2022-10-31T11:42:39.974Z,2.87
2022-10-31T11:45:34.523Z,4.73
2022-10-31T11:48:04.174Z,2.60
2022-10-31T11:50:41.380Z,7.10
2022-10-31T11:53:19.476Z,6.23
2022-10-31T11:55:47.611Z,3.37
2022-10-31T11:58:26.473Z,3.00
2022-10-31T12:00:57.014Z,3.17
2022-10-31T12:03:23.647Z,2.40
2022-10-31T12:06:18.750Z,2.57
2022-10-31T12:08:46.619Z,2.40
2022-10-31T12:11:50.535Z,2.73
2022-10-31T12:15:27.140Z,3.97
2022-10-31T12:18:36.947Z,2.60
2022-10-31T12:21:53.186Z,2.80
2022-10-31T12:24:59.815Z,4.70
2022-10-31T12:27:32.169Z,4.40
2022-10-31T12:30:16.558Z,3.47
2022-10-31T12:33:03.759Z,2.77
2022-10-31T12:36:18.726Z,6.77
2022-10-31T12:39:30.600Z,4.00
2022-10-31T12:42:40.121Z,4.17
2022-10-31T12:45:21.860Z,5.57
2022-10-31T12:48:24.132Z,3.03
2022-10-31T12:51:21.601Z,2.70
2022-10-31T12:54:14.627Z,4.13
2022-10-31T12:56:55.773Z,3.67
2022-10-31T12:59:32.647Z,4.63
2022-10-31T13:02:28.321Z,6.00
2022-10-31T13:05:23.020Z,2.90
2022-10-31T13:08:22.967Z,4.97
2022-10-31T13:11:15.524Z,1.70
2022-10-31T13:13:58.100Z,2.43
2022-10-31T13:16:31.544Z,1.37
2022-10-31T13:19:31.195Z,2.40
2022-10-31T13:22:19.137Z,3.40
2022-10-31T13:25:10.743Z,1.60
2022-10-31T13:27:58.057Z,2.73
2022-10-31T13:30:37.240Z,3.63
2022-10-31T13:33:18.549Z,4.00
2022-10-31T13:35:52.642Z,4.00
2022-10-31T13:38:51.493Z,2.63
2022-10-31T13:41:49.492Z,1.90
2022-10-31T13:44:21.511Z,1.97
2022-10-31T13:46:48.695Z,1.70
2022-10-31T13:49:41.472Z,2.03
2022-10-31T13:52:11.094Z,2.13
2022-10-31T13:54:43.678Z,3.60
2022-10-31T13:57:34.081Z,2.20
2022-10-31T14:00:21.066Z,1.60
2022-10-31T14:02:57.304Z,3.20
2022-10-31T14:05:32.067Z,1.43
2022-10-31T14:08:04.009Z,3.50
2022-10-31T14:10:35.743Z,1.60
2022-10-31T14:13:26.129Z,1.40
2022-10-31T14:15:59.264Z,1.30
2022-10-31T14:18:43.017Z,1.57
2022-10-31T14:21:24.814Z,1.60
2022-10-31T14:23:55.039Z,1.57
2022-10-31T14:26:27.579Z,1.80
2022-10-31T14:28:58.308Z,1.67
2022-10-31T14:31:42.009Z,1.80
2022-10-31T14:34:35.748Z,4.37
2022-10-31T14:37:49.504Z,1.97
2022-10-31T14:40:21.948Z,3.40
2022-10-31T14:43:27.292Z,1.60
2022-10-31T14:46:26.536Z,1.57
2022-10-31T14:49:32.696Z,1.60
2022-10-31T14:52:00.110Z,1.37
2022-10-31T14:54:34.922Z,2.03
2022-10-31T14:57:13.837Z,1.90
2022-10-31T14:59:47.889Z,2.10
2022-10-31T15:02:41.022Z,3.13
2022-10-31T15:05:12.415Z,1.90
2022-10-31T15:07:52.333Z,3.87
2022-10-31T15:10:47.109Z,1.80
2022-10-31T15:13:22.887Z,2.53
2022-10-31T15:15:54.277Z,2.43
2022-10-31T15:18:27.710Z,4.67
2022-10-31T15:20:57.624Z,2.07
2022-10-31T15:23:30.410Z,4.13
2022-10-31T15:26:06.337Z,2.10
2022-10-31T15:28:33.363Z,2.07
2022-10-31T15:31:02.760Z,2.30
2022-10-31T15:33:45.278Z,2.87
2022-10-31T15:36:29.136Z,2.27
2022-10-31T15:38:58.596Z,4.80
2022-10-31T15:41:54.201Z,8.07
2022-10-31T15:44:32.749Z,2.43
2022-10-31T15:47:22.948Z,2.53
2022-10-31T15:49:58.228Z,3.60
2022-10-31T15:52:35.267Z,5.93
2022-10-31T15:55:09.625Z,6.30
2022-10-31T15:57:44.536Z,6.17
2022-10-31T16:00:39.273Z,8.23
2022-10-31T16:03:33.777Z,3.83
2022-10-31T16:06:04.862Z,2.67
2022-10-31T16:08:31.546Z,4.80
2022-10-31T16:11:21.537Z,5.33
2022-10-31T16:13:53.660Z,3.60
2022-10-31T16:16:39.183Z,4.97
2022-10-31T16:19:17.916Z,3.73
2022-10-31T16:21:45.485Z,2.47
2022-10-31T16:24:30.348Z,2.70
2022-10-31T16:27:19.044Z,6.43
2022-10-31T16:29:48.317Z,8.70
2022-10-31T16:32:28.982Z,8.50
2022-10-31T16:35:18.010Z,7.50
2022-10-31T16:37:45.410Z,6.30
2022-10-31T16:40:14.318Z,3.80
2022-10-31T16:42:42.789Z,5.83
2022-10-31T16:45:21.446Z,5.03
2022-10-31T16:47:49.423Z,7.00
2022-10-31T16:50:27.937Z,5.17
2022-10-31T16:55:55.677Z,3.80
2022-10-31T16:58:27.187Z,3.33
2022-10-31T17:00:54.194Z,5.70
2022-10-31T17:03:21.019Z,4.83
2022-10-31T17:05:48.528Z,5.50
2022-10-31T17:08:15.772Z,5.33
2022-10-31T17:10:44.765Z,3.20
2022-10-31T17:13:29.943Z,4.20
2022-10-31T17:16:00.802Z,7.27
2022-10-31T17:18:28.294Z,5.57
2022-10-31T17:21:06.122Z,7.83
2022-10-31T17:23:33.417Z,9.87
2022-10-31T17:26:00.453Z,11.40
2022-10-31T17:28:27.472Z,9.90
2022-10-31T17:30:59.166Z,9.00
2022-10-31T17:33:26.139Z,5.33
2022-10-31T17:35:52.868Z,7.40
2022-10-31T17:38:19.781Z,8.97
2022-10-31T17:43:18.120Z,6.30
2022-10-31T17:45:44.812Z,6.07
2022-10-31T17:48:12.853Z,6.30
2022-10-31T17:50:39.681Z,5.90
2022-10-31T17:53:06.391Z,4.70
2022-10-31T17:55:37.024Z,6.93
2022-10-31T17:58:05.162Z,4.20
2022-10-31T18:00:33.929Z,5.27
2022-10-31T18:03:04.374Z,9.10
2022-10-31T18:05:31.553Z,9.73
2022-10-31T18:08:02.488Z,9.30
2022-10-31T18:10:30.739Z,5.20
2022-10-31T18:12:57.453Z,6.50
2022-10-31T18:15:24.152Z,5.80
2022-10-31T18:17:50.952Z,10.17
2022-10-31T18:20:17.756Z,5.67
2022-10-31T18:22:44.479Z,9.37
2022-10-31T18:25:11.210Z,11.57
2022-10-31T18:27:38.024Z,6.00
2022-10-31T18:30:05.551Z,9.13
2022-10-31T18:32:32.253Z,8.60
2022-10-31T18:34:58.991Z,7.43
2022-10-31T18:37:25.675Z,11.53
2022-10-31T18:39:52.482Z,5.07
2022-10-31T18:42:19.234Z,3.90
2022-10-31T18:44:45.953Z,5.37
2022-10-31T18:47:12.847Z,7.90
2022-10-31T18:49:39.628Z,6.17
2022-10-31T18:52:06.447Z,9.27
2022-10-31T18:54:33.158Z,6.57
2022-10-31T18:56:59.869Z,5.10
2022-10-31T18:59:26.582Z,7.07
2022-10-31T19:01:53.439Z,9.97
2022-10-31T19:04:20.340Z,11.67
2022-10-31T19:06:47.039Z,10.13
2022-10-31T19:09:13.986Z,15.80
2022-10-31T19:11:40.742Z,26.90
2022-10-31T19:14:10.982Z,28.47
2022-10-31T19:16:37.779Z,25.20
2022-10-31T19:19:04.708Z,21.33
2022-10-31T19:21:32.303Z,27.07
2022-10-31T19:24:00.483Z,20.27
2022-10-31T19:26:27.946Z,14.07
2022-10-31T19:28:56.683Z,18.93
2022-10-31T19:31:24.608Z,19.53
2022-10-31T19:33:51.617Z,16.60
2022-10-31T19:36:20.454Z,18.50
2022-10-31T19:38:50.041Z,15.43
2022-10-31T19:41:28.228Z,17.67
2022-10-31T19:43:58.226Z,22.67
2022-10-31T19:46:48.182Z,21.50
2022-10-31T19:49:12.414Z,19.60
2022-10-31T19:51:39.300Z,23.87
2022-10-31T19:54:07.506Z,26.80
2022-10-31T19:56:34.591Z,22.93
2022-10-31T19:59:02.624Z,26.27
2022-10-31T20:01:29.470Z,24.03
2022-10-31T20:03:56.227Z,20.30
2022-10-31T20:06:33.469Z,16.77
2022-10-31T20:09:04.294Z,15.27
2022-10-31T20:11:31.504Z,13.30
2022-10-31T20:13:59.333Z,14.50
2022-10-31T20:16:27.241Z,16.27
2022-10-31T20:18:54.759Z,12.83
2022-10-31T20:21:26.315Z,8.90
2022-10-31T20:24:02.081Z,14.20
2022-10-31T20:26:31.052Z,9.30
2022-10-31T20:29:00.163Z,8.27
2022-10-31T20:31:31.766Z,11.17
2022-10-31T20:33:58.599Z,9.90
2022-10-31T20:36:25.667Z,14.23
2022-10-31T20:38:53.174Z,18.90
2022-10-31T20:41:20.089Z,22.93
2022-10-31T20:43:48.026Z,16.43
2022-10-31T20:46:23.078Z,12.50
2022-10-31T20:48:50.542Z,13.10
2022-10-31T20:51:24.118Z,14.97
2022-10-31T20:53:53.089Z,12.70
2022-10-31T20:56:23.620Z,18.77
2022-10-31T20:58:51.139Z,14.60
2022-10-31T21:01:20.586Z,14.10
2022-10-31T21:03:48.449Z,11.03
2022-10-31T21:06:16.598Z,12.03
2022-10-31T21:08:44.085Z,18.27
2022-10-31T21:11:17.859Z,12.13
2022-10-31T21:13:46.698Z,12.17
2022-10-31T21:16:27.215Z,14.90
2022-10-31T21:18:54.395Z,19.73
2022-10-31T21:21:29.153Z,11.43
2022-10-31T21:24:12.662Z,12.70
2022-10-31T21:26:46.989Z,14.93
2022-10-31T21:29:15.718Z,10.97
2022-10-31T21:31:43.490Z,11.97
2022-10-31T21:34:11.327Z,11.03
2022-10-31T21:36:38.215Z,7.27
2022-10-31T21:39:08.139Z,15.00
2022-10-31T21:41:37.740Z,11.50
2022-10-31T21:44:04.881Z,10.80
2022-10-31T21:46:33.775Z,11.23
2022-10-31T21:49:03.528Z,9.57
2022-10-31T21:51:34.368Z,7.63
2022-10-31T21:54:20.493Z,9.67
2022-10-31T21:56:47.935Z,10.37
2022-10-31T21:59:14.643Z,9.27
2022-10-31T22:01:41.580Z,12.73
2022-10-31T22:04:08.747Z,9.13
2022-10-31T22:06:36.249Z,13.73
2022-10-31T22:09:06.997Z,12.13
2022-10-31T22:11:34.527Z,8.47
2022-10-31T22:14:02.365Z,13.37
2022-10-31T22:16:33.076Z,11.57
2022-10-31T22:19:05.241Z,9.07
2022-10-31T22:21:41.790Z,10.67
2022-10-31T22:24:09.661Z,9.13
2022-10-31T22:26:37.751Z,7.97
2022-10-31T22:29:09.731Z,9.23
2022-10-31T22:31:40.659Z,8.07
2022-10-31T22:34:08.591Z,10.33
2022-10-31T22:36:35.926Z,9.53
2022-10-31T22:39:03.164Z,10.63
2022-10-31T22:41:32.575Z,7.07
2022-10-31T22:44:00.415Z,7.70
2022-10-31T22:46:36.585Z,8.67
2022-10-31T22:49:11.412Z,9.67
2022-10-31T22:51:40.018Z,5.87
2022-10-31T22:54:18.195Z,11.17
2022-10-31T22:56:46.109Z,13.63
2022-10-31T22:59:15.893Z,6.20
2022-10-31T23:01:45.534Z,6.33
2022-10-31T23:04:13.675Z,7.20
2022-10-31T23:06:40.436Z,16.60
2022-10-31T23:09:08.123Z,7.07
2022-10-31T23:11:39.186Z,10.20
2022-10-31T23:14:20.790Z,8.27
2022-10-31T23:16:57.016Z,8.20
2022-10-31T23:19:29.841Z,6.90
2022-10-31T23:22:00.596Z,5.57
2022-10-31T23:24:45.291Z,10.43
2022-10-31T23:27:24.162Z,7.27
2022-10-31T23:29:57.021Z,7.70
2022-10-31T23:32:35.180Z,6.87
2022-10-31T23:35:11.269Z,10.87
2022-10-31T23:37:39.116Z,5.63
2022-10-31T23:40:12.892Z,5.70
2022-10-31T23:42:39.586Z,5.33
2022-10-31T23:45:06.993Z,9.90
2022-10-31T23:47:33.743Z,4.67
2022-10-31T23:50:00.476Z,4.67
2022-10-31T23:52:27.173Z,6.73
2022-10-31T23:54:53.890Z,9.63
2022-10-31T23:57:20.668Z,6.40
2022-10-31T23:59:47.900Z,7.07
